createdAt,value
2023-03-22T00:01:28.723Z,11.07
2023-03-22T00:03:56.877Z,12.55
2023-03-22T00:06:25.696Z,11.65
2023-03-22T00:08:55.259Z,10.80
2023-03-22T00:11:25.840Z,9.93
2023-03-22T00:13:55.021Z,10.05
2023-03-22T00:16:24.690Z,9.90
2023-03-22T00:18:52.816Z,8.65
2023-03-22T00:21:21.197Z,8.45
2023-03-22T00:23:49.305Z,8.35
2023-03-22T00:26:17.398Z,7.88
2023-03-22T00:28:45.625Z,8.45
2023-03-22T00:31:15.680Z,8.18
2023-03-22T00:33:45.482Z,7.78
2023-03-22T00:36:14.368Z,7.45
2023-03-22T00:38:44.034Z,7.68
2023-03-22T00:41:14.341Z,8.05
2023-03-22T00:43:42.840Z,8.27
2023-03-22T00:46:12.194Z,8.18
2023-03-22T00:48:40.747Z,9.18
2023-03-22T00:51:11.634Z,8.80
2023-03-22T00:53:42.833Z,8.80
2023-03-22T00:56:15.814Z,9.15
2023-03-22T00:59:07.233Z,9.40
2023-03-22T01:01:35.438Z,9.75
2023-03-22T01:04:05.139Z,10.65
2023-03-22T01:06:35.480Z,9.95
2023-03-22T01:09:05.045Z,9.93
2023-03-22T01:11:36.721Z,9.57
2023-03-22T01:14:04.856Z,9.10
2023-03-22T01:16:33.013Z,9.82
2023-03-22T01:19:01.314Z,8.95
2023-03-22T01:21:29.583Z,9.55
2023-03-22T01:23:59.057Z,8.90
2023-03-22T01:26:27.161Z,8.55
2023-03-22T01:28:55.332Z,8.45
2023-03-22T01:31:23.512Z,8.18
2023-03-22T01:33:51.904Z,7.90
2023-03-22T01:36:21.023Z,6.97
2023-03-22T01:38:49.108Z,7.63
2023-03-22T01:41:18.844Z,7.72
2023-03-22T01:44:07.408Z,7.35
2023-03-22T01:46:35.738Z,8.30
2023-03-22T01:49:06.246Z,8.18
2023-03-22T01:51:35.342Z,7.72
2023-03-22T01:54:13.737Z,8.20
2023-03-22T01:56:43.652Z,7.88
2023-03-22T01:59:17.920Z,6.75
2023-03-22T02:02:10.867Z,6.90
2023-03-22T02:04:40.355Z,6.40
2023-03-22T02:07:15.472Z,6.25
2023-03-22T02:09:46.618Z,5.97
2023-03-22T02:12:29.593Z,6.40
2023-03-22T02:15:09.282Z,5.75
2023-03-22T02:18:11.559Z,5.68
2023-03-22T02:21:19.641Z,6.13
2023-03-22T02:24:27.172Z,6.40
2023-03-22T02:27:19.893Z,6.55
2023-03-22T02:29:52.602Z,6.70
2023-03-22T02:32:50.290Z,7.30
2023-03-22T02:35:53.627Z,6.43
2023-03-22T02:38:57.912Z,6.32
2023-03-22T02:41:35.350Z,6.90
2023-03-22T02:44:10.286Z,6.20
2023-03-22T02:46:45.315Z,5.90
2023-03-22T02:49:20.149Z,6.32
2023-03-22T02:51:53.700Z,6.18
2023-03-22T02:54:30.026Z,5.32
2023-03-22T02:57:04.231Z,6.13
2023-03-22T02:59:38.494Z,5.88
2023-03-22T03:02:08.304Z,5.50
2023-03-22T03:04:41.548Z,5.38
2023-03-22T03:07:14.269Z,5.53
2023-03-22T03:09:44.862Z,5.00
2023-03-22T03:12:21.232Z,5.50
2023-03-22T03:14:49.681Z,5.65
2023-03-22T03:17:27.669Z,4.97
2023-03-22T03:20:09.320Z,4.90
2023-03-22T03:22:50.756Z,5.43
2023-03-22T03:25:26.855Z,5.10
2023-03-22T03:28:03.347Z,4.47
2023-03-22T03:30:36.196Z,4.82
2023-03-22T03:33:09.520Z,4.47
2023-03-22T03:35:42.280Z,4.63
2023-03-22T03:38:17.538Z,4.90
2023-03-22T03:40:49.869Z,4.30
2023-03-22T03:43:18.808Z,4.93
2023-03-22T03:45:47.350Z,4.57
2023-03-22T03:48:20.472Z,4.60
2023-03-22T03:50:51.618Z,4.53
2023-03-22T03:53:20.375Z,4.50
2023-03-22T03:55:50.087Z,4.55
2023-03-22T03:58:18.887Z,4.78
2023-03-22T04:00:48.628Z,4.47
2023-03-22T04:03:42.944Z,5.03
2023-03-22T04:06:14.141Z,4.72
2023-03-22T04:08:53.578Z,4.65
2023-03-22T04:11:27.070Z,4.20
2023-03-22T04:14:00.876Z,4.15
2023-03-22T04:16:29.285Z,4.07
2023-03-22T04:18:57.678Z,4.05
2023-03-22T04:21:26.021Z,4.43
2023-03-22T04:24:02.647Z,4.50
2023-03-22T04:26:37.319Z,3.80
2023-03-22T04:29:25.452Z,4.15
2023-03-22T04:32:01.004Z,4.28
2023-03-22T04:34:47.694Z,3.83
2023-03-22T04:37:19.445Z,3.95
2023-03-22T04:39:53.384Z,3.88
2023-03-22T04:42:38.290Z,3.60
2023-03-22T04:45:15.067Z,3.72
2023-03-22T04:47:47.278Z,4.00
2023-03-22T04:50:15.728Z,3.80
2023-03-22T04:52:58.519Z,4.25
2023-03-22T04:55:27.713Z,3.80
2023-03-22T04:57:57.465Z,4.50
2023-03-22T05:00:26.271Z,4.63
2023-03-22T05:02:55.196Z,4.53
2023-03-22T05:05:41.814Z,4.70
2023-03-22T05:08:10.178Z,4.60
2023-03-22T05:10:41.721Z,4.93
2023-03-22T05:13:11.960Z,4.78
2023-03-22T05:15:44.394Z,4.57
2023-03-22T05:18:15.587Z,4.60
2023-03-22T05:20:44.966Z,5.22
2023-03-22T05:23:19.375Z,5.28
2023-03-22T05:25:51.678Z,5.65
2023-03-22T05:28:22.617Z,5.32
2023-03-22T05:31:11.121Z,6.50
2023-03-22T05:33:55.515Z,6.93
2023-03-22T05:36:29.689Z,7.50
2023-03-22T05:39:14.916Z,7.50
2023-03-22T05:41:44.411Z,7.30
2023-03-22T05:44:14.114Z,7.82
2023-03-22T05:46:51.726Z,8.95
2023-03-22T05:49:49.386Z,8.10
2023-03-22T05:52:18.264Z,8.48
2023-03-22T05:55:07.971Z,8.63
2023-03-22T05:57:36.499Z,8.75
2023-03-22T06:00:13.519Z,9.88
2023-03-22T06:02:48.242Z,9.85
2023-03-22T06:05:18.454Z,10.13
2023-03-22T06:07:47.161Z,9.55
2023-03-22T06:10:18.359Z,10.20
2023-03-22T06:12:47.325Z,9.90
2023-03-22T06:15:25.858Z,9.73
2023-03-22T06:17:56.813Z,11.23
2023-03-22T06:20:29.055Z,10.15
2023-03-22T06:23:02.676Z,10.20
2023-03-22T06:25:31.051Z,11.02
2023-03-22T06:27:59.384Z,10.73
2023-03-22T06:30:29.488Z,10.95
2023-03-22T06:33:18.171Z,10.65
2023-03-22T06:35:50.541Z,11.13
2023-03-22T06:38:27.614Z,10.38
2023-03-22T06:40:55.977Z,11.25
2023-03-22T06:43:24.371Z,10.35
2023-03-22T06:45:59.617Z,10.63
2023-03-22T06:48:33.792Z,10.70
2023-03-22T06:51:07.383Z,10.55
2023-03-22T06:53:37.437Z,10.15
2023-03-22T06:56:06.798Z,10.23
2023-03-22T06:58:46.823Z,10.32
2023-03-22T07:01:16.695Z,9.63
2023-03-22T07:03:45.596Z,10.43
2023-03-22T07:06:16.599Z,10.52
2023-03-22T07:08:50.808Z,9.63
2023-03-22T07:11:25.959Z,10.13
2023-03-22T07:13:59.967Z,9.57
2023-03-22T07:16:38.308Z,10.02
2023-03-22T07:19:08.131Z,9.40
2023-03-22T07:21:37.853Z,10.15
2023-03-22T07:24:12.046Z,9.30
2023-03-22T07:26:40.906Z,9.80
2023-03-22T07:29:11.004Z,8.88
2023-03-22T07:31:41.190Z,8.55
2023-03-22T07:34:14.403Z,8.77
2023-03-22T07:37:06.581Z,9.32
2023-03-22T07:39:35.514Z,8.48
2023-03-22T07:42:04.754Z,8.88
2023-03-22T07:44:53.173Z,8.77
2023-03-22T07:47:39.575Z,8.18
2023-03-22T07:50:39.233Z,8.30
2023-03-22T07:53:07.946Z,7.93
2023-03-22T07:55:36.861Z,7.63
2023-03-22T07:58:06.088Z,6.78
2023-03-22T08:00:34.652Z,7.05
2023-03-22T08:03:24.321Z,6.95
2023-03-22T08:06:07.817Z,7.05
2023-03-22T08:08:37.994Z,7.50
2023-03-22T08:11:07.215Z,6.47
2023-03-22T08:13:36.356Z,7.00
2023-03-22T08:16:05.495Z,6.40
2023-03-22T08:18:35.469Z,6.07
2023-03-22T08:21:04.099Z,6.57
2023-03-22T08:23:41.828Z,5.78
2023-03-22T08:26:29.074Z,5.80
2023-03-22T08:29:02.290Z,6.65
2023-03-22T08:31:33.862Z,6.22
2023-03-22T08:34:03.657Z,5.75
2023-03-22T08:36:31.967Z,5.93
2023-03-22T08:39:04.270Z,6.28
2023-03-22T08:41:58.211Z,6.38
2023-03-22T08:44:28.325Z,5.68
2023-03-22T08:46:57.075Z,5.05
2023-03-22T08:49:27.288Z,5.72
2023-03-22T08:52:01.816Z,5.53
2023-03-22T08:54:48.530Z,5.50
2023-03-22T08:57:38.854Z,5.15
2023-03-22T09:00:20.895Z,5.38
2023-03-22T09:03:09.565Z,5.53
2023-03-22T09:05:40.413Z,5.28
2023-03-22T09:08:18.230Z,5.25
2023-03-22T09:10:52.110Z,5.10
2023-03-22T09:13:22.921Z,4.82
2023-03-22T09:15:56.807Z,5.05
2023-03-22T09:18:31.139Z,4.47
2023-03-22T09:21:05.433Z,5.18
2023-03-22T09:23:42.058Z,4.68
2023-03-22T09:26:12.160Z,5.00
2023-03-22T09:28:40.871Z,4.70
2023-03-22T09:31:11.652Z,4.68
2023-03-22T09:33:44.117Z,4.22
2023-03-22T09:36:13.943Z,4.30
2023-03-22T09:38:42.513Z,3.78
2023-03-22T09:41:15.439Z,4.22
2023-03-22T09:43:47.961Z,4.00
2023-03-22T09:46:19.005Z,3.83
2023-03-22T09:48:50.139Z,3.75
2023-03-22T09:51:34.812Z,4.43
2023-03-22T09:54:03.416Z,4.18
2023-03-22T09:56:33.555Z,3.78
2023-03-22T09:59:09.673Z,4.15
2023-03-22T10:01:46.957Z,3.60
2023-03-22T10:04:40.408Z,3.50
2023-03-22T10:07:19.896Z,3.72
2023-03-22T10:09:57.771Z,3.83
2023-03-22T10:12:30.489Z,3.90
2023-03-22T10:15:06.875Z,4.63
2023-03-22T10:17:38.999Z,3.70
2023-03-22T10:20:14.913Z,3.30
2023-03-22T10:22:47.161Z,3.17
2023-03-22T10:25:22.514Z,4.15
2023-03-22T10:27:52.927Z,3.58
2023-03-22T10:30:23.075Z,3.53
2023-03-22T10:32:58.451Z,3.92
2023-03-22T10:35:29.645Z,3.75
2023-03-22T10:38:03.251Z,4.00
2023-03-22T10:40:34.797Z,3.92
2023-03-22T10:43:07.747Z,3.58
2023-03-22T10:45:37.329Z,4.13
2023-03-22T10:48:11.077Z,3.65
2023-03-22T10:50:43.400Z,3.30
2023-03-22T10:53:22.505Z,3.20
2023-03-22T10:55:50.948Z,3.90
2023-03-22T10:58:20.943Z,4.05
2023-03-22T11:00:50.999Z,4.00
2023-03-22T11:03:28.670Z,3.88
2023-03-22T11:06:02.250Z,4.38
2023-03-22T11:08:40.407Z,3.95
2023-03-22T11:11:13.989Z,4.05
2023-03-22T11:13:42.318Z,4.50
2023-03-22T11:16:10.718Z,4.25
2023-03-22T11:18:43.116Z,4.43
2023-03-22T11:21:13.301Z,5.30
2023-03-22T11:23:51.281Z,4.50
2023-03-22T11:26:27.731Z,4.47
2023-03-22T11:29:16.819Z,4.90
2023-03-22T11:32:06.183Z,5.70
2023-03-22T11:34:34.551Z,4.88
2023-03-22T11:37:02.997Z,4.38
2023-03-22T11:39:32.662Z,4.82
2023-03-22T11:42:03.987Z,5.10
2023-03-22T11:44:35.983Z,4.95
2023-03-22T11:47:15.517Z,4.88
2023-03-22T11:49:48.019Z,4.43
2023-03-22T11:52:20.150Z,4.80
2023-03-22T11:54:50.804Z,4.55
2023-03-22T11:57:22.753Z,5.30
2023-03-22T11:59:58.177Z,5.15
2023-03-22T12:02:29.535Z,4.65
2023-03-22T12:05:05.599Z,4.70
2023-03-22T12:07:37.722Z,4.60
2023-03-22T12:10:14.529Z,4.90
2023-03-22T12:12:48.039Z,5.20
2023-03-22T12:15:21.233Z,5.30
2023-03-22T12:17:56.074Z,4.80
2023-03-22T12:20:36.136Z,4.35
2023-03-22T12:23:14.228Z,5.05
2023-03-22T12:25:47.918Z,4.55
2023-03-22T12:28:19.759Z,5.20
2023-03-22T12:30:52.067Z,4.70
2023-03-22T12:33:25.125Z,5.25
2023-03-22T12:35:58.145Z,4.75
2023-03-22T12:38:34.079Z,4.15
2023-03-22T12:41:12.329Z,5.05
2023-03-22T12:43:47.979Z,4.43
2023-03-22T12:46:21.760Z,5.03
2023-03-22T12:48:53.608Z,3.85
2023-03-22T12:51:22.140Z,4.60
2023-03-22T12:53:53.599Z,4.30
2023-03-22T12:56:25.477Z,4.45
2023-03-22T12:58:57.856Z,3.88
2023-03-22T13:01:36.588Z,4.78
2023-03-22T13:04:32.962Z,4.03
2023-03-22T13:07:15.322Z,3.90
2023-03-22T13:09:45.472Z,3.85
2023-03-22T13:12:35.157Z,4.20
2023-03-22T13:15:25.981Z,4.47
2023-03-22T13:17:59.994Z,4.15
2023-03-22T13:20:30.927Z,4.65
2023-03-22T13:23:26.370Z,6.00
2023-03-22T13:26:03.805Z,4.75
2023-03-22T13:28:38.132Z,5.35
2023-03-22T13:31:07.648Z,5.50
2023-03-22T13:33:38.802Z,4.78
2023-03-22T13:36:10.086Z,4.82
2023-03-22T13:38:42.493Z,4.57
2023-03-22T13:41:22.071Z,4.75
2023-03-22T13:43:53.390Z,5.32
2023-03-22T13:46:46.724Z,4.28
2023-03-22T13:49:33.708Z,5.05
2023-03-22T13:52:03.386Z,5.38
2023-03-22T13:54:37.727Z,5.13
2023-03-22T13:57:17.476Z,5.13
2023-03-22T14:00:11.960Z,4.82
2023-03-22T14:02:43.963Z,4.55
2023-03-22T14:05:17.654Z,5.00
2023-03-22T14:07:50.920Z,5.10
2023-03-22T14:10:23.491Z,5.72
2023-03-22T14:12:55.434Z,5.20
2023-03-22T14:15:27.618Z,4.57
2023-03-22T14:18:00.848Z,5.15
2023-03-22T14:20:34.833Z,5.10
